Time;durP1;ratioP1;P1;durP2;ratioP2;P2;SDS_P1;SDS_P2;PMS_P1;PMS_P2;Temp;Humidity;BMP_temperature;BMP_pressure;BME280_temperature;BME280_humidity;BME280_pressure;Samples;Min_cycle;Max_cycle;Signal;HPM_P1;HPM_P2
2022/07/09 00:01:51;;;;;;;8.40;3.15;;;14.80;99.90;;;;;;5012531;28;20439;-47
2022/07/09 00:04:17;;;;;;;5.88;2.95;;;14.80;99.90;;;;;;5051564;22;20030;-47
2022/07/09 00:06:42;;;;;;;5.03;2.47;;;14.70;99.90;;;;;;5047891;28;20518;-47
2022/07/09 00:09:08;;;;;;;8.40;3.10;;;14.70;99.90;;;;;;5048331;28;20544;-46
2022/07/09 00:11:33;;;;;;;8.30;2.85;;;14.70;99.90;;;;;;5048884;28;20534;-46
2022/07/09 00:13:59;;;;;;;7.72;3.53;;;14.70;99.90;;;;;;5049056;28;20013;-46
2022/07/09 00:16:25;;;;;;;6.78;2.58;;;14.70;99.90;;;;;;5049121;28;20029;-50
2022/07/09 00:18:50;;;;;;;5.28;2.50;;;14.70;99.90;;;;;;5045589;28;20037;-47
2022/07/09 00:21:16;;;;;;;7.00;3.03;;;14.60;99.90;;;;;;5048820;28;20092;-47
2022/07/09 00:23:41;;;;;;;6.43;3.10;;;14.60;99.90;;;;;;5048445;28;20068;-49
2022/07/09 00:26:07;;;;;;;8.82;3.08;;;14.60;99.90;;;;;;5030403;28;20029;-51
2022/07/09 00:28:32;;;;;;;6.97;3.22;;;14.60;99.90;;;;;;5042618;28;20033;-49
2022/07/09 00:30:58;;;;;;;6.75;3.00;;;14.60;99.90;;;;;;5048884;28;20023;-47
2022/07/09 00:33:23;;;;;;;5.47;2.78;;;14.60;99.90;;;;;;5048412;28;20483;-46
2022/07/09 00:35:49;;;;;;;3.88;2.50;;;14.60;99.90;;;;;;5013978;28;20055;-52
2022/07/09 00:38:14;;;;;;;3.60;2.25;;;14.60;99.90;;;;;;5049056;28;20104;-50
2022/07/09 00:40:40;;;;;;;3.58;2.53;;;14.60;99.90;;;;;;5048311;28;20078;-48
2022/07/09 00:43:22;;;;;;;5.30;2.60;;;14.60;99.90;;;;;;5048171;28;20367;-51
2022/07/09 00:45:48;;;;;;;6.20;3.10;;;14.60;99.90;;;;;;5048747;28;20017;-53
2022/07/09 00:48:14;;;;;;;7.90;3.35;;;14.60;99.90;;;;;;5048127;28;20017;-51
2022/07/09 00:50:42;;;;;;;6.78;3.33;;;14.60;99.90;;;;;;5048671;28;20067;-49
2022/07/09 00:53:22;;;;;;;7.13;2.20;;;14.60;99.90;;;;;;5048432;28;20031;-50
2022/07/09 00:55:48;;;;;;;5.38;2.75;;;14.60;99.90;;;;;;5045178;28;20381;-49
2022/07/09 00:58:17;;;;;;;6.15;2.13;;;14.60;99.90;;;;;;5041089;28;20100;-50
2022/07/09 01:00:43;;;;;;;7.55;3.00;;;14.60;99.90;;;;;;5041322;28;20544;-50
2022/07/09 01:03:09;;;;;;;5.53;3.05;;;14.60;99.90;;;;;;5045341;28;20078;-47
2022/07/09 01:05:35;;;;;;;5.82;2.75;;;14.70;99.90;;;;;;5047471;28;20036;-51
2022/07/09 01:08:05;;;;;;;6.38;2.83;;;14.70;99.90;;;;;;5030889;28;20028;-46
2022/07/09 01:10:32;;;;;;;9.30;3.47;;;14.60;99.90;;;;;;5030726;28;20029;-46
2022/07/09 01:12:57;;;;;;;10.02;4.03;;;14.60;99.90;;;;;;5046534;28;20108;-46
2022/07/09 01:15:23;;;;;;;7.28;3.60;;;14.60;99.90;;;;;;5048854;28;20143;-46
2022/07/09 01:17:51;;;;;;;6.53;3.42;;;14.60;99.90;;;;;;5048908;28;20106;-51
2022/07/09 01:20:23;;;;;;;6.57;3.65;;;14.60;99.90;;;;;;5030591;28;20036;-48
2022/07/09 01:22:48;;;;;;;9.93;3.97;;;14.60;99.90;;;;;;5051547;28;20016;-51
2022/07/09 01:25:17;;;;;;;10.10;3.63;;;14.60;99.90;;;;;;5052046;28;20027;-46
2022/07/09 01:27:42;;;;;;;5.57;3.58;;;14.60;99.90;;;;;;5052586;28;20017;-47
2022/07/09 01:30:08;;;;;;;5.10;3.47;;;14.60;99.90;;;;;;5052208;28;20033;-46
2022/07/09 01:32:34;;;;;;;6.22;3.22;;;14.70;99.90;;;;;;5051464;28;20104;-49
2022/07/09 01:35:00;;;;;;;6.53;3.42;;;14.70;99.90;;;;;;5051943;28;20041;-46
2022/07/09 01:37:26;;;;;;;7.28;4.05;;;14.70;99.90;;;;;;5052212;28;20025;-46
2022/07/09 01:39:51;;;;;;;6.65;3.60;;;14.70;99.90;;;;;;5051978;28;20502;-50
2022/07/09 01:42:20;;;;;;;8.30;4.18;;;14.60;99.90;;;;;;5051807;28;20057;-51
2022/07/09 01:44:48;;;;;;;8.93;3.45;;;14.70;99.90;;;;;;5033768;28;20021;-46
2022/07/09 01:47:14;;;;;;;5.50;3.63;;;14.70;99.90;;;;;;5052250;28;20021;-47
2022/07/09 01:49:41;;;;;;;9.77;3.92;;;14.70;99.90;;;;;;5052401;28;20498;-46
2022/07/09 01:52:07;;;;;;;7.97;4.00;;;14.70;99.90;;;;;;5050993;28;20028;-47
2022/07/09 01:54:33;;;;;;;9.48;4.15;;;14.70;99.90;;;;;;5051710;28;20615;-46
2022/07/09 01:56:58;;;;;;;8.02;3.88;;;14.70;99.90;;;;;;5051852;28;20033;-46
2022/07/09 01:59:24;;;;;;;8.82;4.53;;;14.70;99.90;;;;;;5051168;28;20033;-47
2022/07/09 02:01:49;;;;;;;7.80;3.42;;;14.70;99.90;;;;;;5051569;28;20036;-50
2022/07/09 02:04:15;;;;;;;8.18;3.95;;;14.60;99.90;;;;;;5051306;28;20553;-47
2022/07/09 02:06:41;;;;;;;7.13;3.65;;;14.60;99.90;;;;;;5051706;28;20487;-48
2022/07/09 02:09:06;;;;;;;8.95;4.03;;;14.60;99.90;;;;;;5050883;28;20459;-51
2022/07/09 02:11:32;;;;;;;6.97;3.60;;;14.60;99.90;;;;;;5051193;28;20491;-48
2022/07/09 02:13:58;;;;;;;8.73;3.50;;;14.60;99.90;;;;;;5051320;28;20043;-46
2022/07/09 02:16:24;;;;;;;12.45;4.25;;;14.50;99.90;;;;;;5050345;28;20052;-53
2022/07/09 02:18:50;;;;;;;8.68;3.83;;;14.60;99.90;;;;;;5050146;28;20032;-46
2022/07/09 02:21:16;;;;;;;9.50;3.83;;;14.60;99.90;;;;;;5051268;28;20017;-48
2022/07/09 02:23:42;;;;;;;7.72;4.63;;;14.60;99.90;;;;;;5051333;28;20533;-47
2022/07/09 02:26:07;;;;;;;10.15;3.92;;;14.50;99.90;;;;;;5033518;28;20033;-49
2022/07/09 02:28:33;;;;;;;8.38;3.42;;;14.60;99.90;;;;;;5051674;28;20491;-48
2022/07/09 02:30:59;;;;;;;6.38;3.40;;;14.60;99.90;;;;;;5051333;28;20031;-49
2022/07/09 02:33:25;;;;;;;9.40;3.75;;;14.50;99.90;;;;;;5049733;28;20031;-53
2022/07/09 02:35:50;;;;;;;7.90;3.25;;;14.50;99.90;;;;;;5051088;28;20029;-46
2022/07/09 02:38:16;;;;;;;10.85;3.92;;;14.50;99.90;;;;;;5051052;28;20025;-45
2022/07/09 02:40:41;;;;;;;7.28;3.85;;;14.60;99.90;;;;;;5032948;28;20098;-46
2022/07/09 02:43:07;;;;;;;7.97;3.53;;;14.50;99.90;;;;;;5050585;28;20043;-49
2022/07/09 02:45:33;;;;;;;7.10;4.20;;;14.60;99.90;;;;;;5050760;28;20061;-46
2022/07/09 02:47:58;;;;;;;6.00;4.10;;;14.60;99.90;;;;;;5050443;28;20025;-48
2022/07/09 02:50:24;;;;;;;6.03;4.05;;;14.60;99.90;;;;;;5050686;28;20033;-48
2022/07/09 02:52:49;;;;;;;11.30;3.92;;;14.60;99.90;;;;;;5050478;28;20037;-48
2022/07/09 02:55:15;;;;;;;7.60;3.80;;;14.60;99.90;;;;;;5050328;28;20562;-47
2022/07/09 02:57:40;;;;;;;10.60;4.40;;;14.60;99.90;;;;;;5050870;28;20219;-46
2022/07/09 03:00:06;;;;;;;8.20;4.13;;;14.60;99.90;;;;;;5050490;28;20078;-46
2022/07/09 03:02:32;;;;;;;7.93;4.13;;;14.60;99.90;;;;;;5050471;28;20028;-46
2022/07/09 03:04:58;;;;;;;7.85;3.83;;;14.60;99.90;;;;;;5050288;28;20029;-50
2022/07/09 03:07:23;;;;;;;11.32;3.97;;;14.60;99.90;;;;;;5050889;28;20514;-51
2022/07/09 03:09:49;;;;;;;7.63;3.97;;;14.60;99.90;;;;;;5049938;28;20040;-46
2022/07/09 03:12:15;;;;;;;6.18;3.63;;;14.60;99.90;;;;;;5050644;28;20070;-46
2022/07/09 03:14:41;;;;;;;8.05;4.18;;;14.60;99.90;;;;;;5049963;28;20096;-54
2022/07/09 03:17:07;;;;;;;6.15;3.60;;;14.60;99.90;;;;;;5050285;28;20033;-49
2022/07/09 03:19:32;;;;;;;9.68;4.25;;;14.60;99.90;;;;;;5050406;28;20040;-48
2022/07/09 03:21:58;;;;;;;8.07;3.58;;;14.60;99.90;;;;;;5049620;28;20447;-53
2022/07/09 03:24:23;;;;;;;6.05;3.78;;;14.60;99.90;;;;;;5032062;28;20086;-48
2022/07/09 03:26:49;;;;;;;7.03;4.00;;;14.60;99.90;;;;;;5050085;28;20017;-51
2022/07/09 03:29:15;;;;;;;8.00;4.72;;;14.60;99.90;;;;;;5048289;28;20654;-47
2022/07/09 03:31:41;;;;;;;8.18;3.95;;;14.50;99.90;;;;;;5045985;28;20043;-52
2022/07/09 03:34:06;;;;;;;6.82;3.53;;;14.50;99.90;;;;;;5049406;28;20043;-52
2022/07/09 03:36:32;;;;;;;8.48;3.47;;;14.60;99.90;;;;;;5049601;28;20021;-52
2022/07/09 03:38:58;;;;;;;8.95;5.30;;;14.60;99.90;;;;;;5050129;28;20471;-49
2022/07/09 03:41:24;;;;;;;8.52;4.80;;;14.60;99.90;;;;;;5049722;28;20451;-48
2022/07/09 03:43:49;;;;;;;10.07;4.55;;;14.60;99.90;;;;;;5049311;28;20017;-51
2022/07/09 03:46:15;;;;;;;10.80;3.88;;;14.60;99.90;;;;;;5049363;28;20021;-52
2022/07/09 03:48:40;;;;;;;12.45;4.47;;;14.60;99.90;;;;;;5049570;28;20068;-47
2022/07/09 03:51:06;;;;;;;6.95;3.97;;;14.60;99.90;;;;;;5049847;28;20021;-48
2022/07/09 03:53:32;;;;;;;9.20;4.15;;;14.70;99.90;;;;;;5048739;28;20033;-47
2022/07/09 03:55:59;;;;;;;8.57;4.18;;;14.60;99.90;;;;;;5049878;28;20057;-48
2022/07/09 03:58:24;;;;;;;7.65;4.18;;;14.60;99.90;;;;;;5049421;28;20108;-49
2022/07/09 04:00:52;;;;;;;7.38;4.05;;;14.70;99.90;;;;;;5049051;28;20055;-49
2022/07/09 04:03:17;;;;;;;8.93;4.03;;;14.60;99.90;;;;;;5048924;28;20025;-49
2022/07/09 04:05:44;;;;;;;8.45;4.75;;;14.60;99.90;;;;;;5049484;28;20433;-47
2022/07/09 04:08:10;;;;;;;9.43;3.97;;;14.70;99.90;;;;;;5049269;28;20029;-48
2022/07/09 04:10:36;;;;;;;7.78;4.15;;;14.70;99.90;;;;;;5049553;28;20079;-51
2022/07/09 04:13:01;;;;;;;9.90;4.13;;;14.70;99.90;;;;;;5049051;28;20025;-46
2022/07/09 04:15:27;;;;;;;6.57;3.97;;;14.70;99.90;;;;;;5049186;28;20060;-47
2022/07/09 04:17:52;;;;;;;8.63;3.70;;;14.70;99.90;;;;;;5049121;28;20044;-51
2022/07/09 04:20:18;;;;;;;9.55;4.82;;;14.70;99.90;;;;;;5049433;28;20029;-47
2022/07/09 04:22:43;;;;;;;9.30;4.53;;;14.70;99.90;;;;;;5048810;28;20021;-47
2022/07/09 04:25:09;;;;;;;10.63;4.07;;;14.70;99.90;;;;;;5048714;28;20662;-46
2022/07/09 04:27:38;;;;;;;7.53;3.72;;;14.70;99.90;;;;;;5049368;28;20021;-47
2022/07/09 04:30:05;;;;;;;7.63;3.83;;;14.80;99.90;;;;;;5048583;28;20426;-49
2022/07/09 04:32:31;;;;;;;7.57;4.32;;;14.80;99.90;;;;;;5048725;28;20040;-48
2022/07/09 04:34:57;;;;;;;7.30;4.53;;;14.80;99.90;;;;;;5048685;28;20025;-47
2022/07/09 04:37:22;;;;;;;13.02;4.38;;;14.80;99.90;;;;;;5048348;28;20037;-48
2022/07/09 04:39:48;;;;;;;5.40;4.07;;;14.80;99.90;;;;;;5048548;28;20036;-48
2022/07/09 04:42:14;;;;;;;6.38;3.72;;;14.80;99.90;;;;;;5048009;28;20016;-47
2022/07/09 04:44:41;;;;;;;8.88;3.95;;;14.80;99.90;;;;;;5048480;28;20079;-47
2022/07/09 04:47:07;;;;;;;8.95;4.35;;;14.80;99.90;;;;;;5048177;28;20025;-47
2022/07/09 04:49:33;;;;;;;8.00;4.18;;;14.80;99.90;;;;;;5049054;28;20091;-52
2022/07/09 04:51:58;;;;;;;10.57;4.68;;;14.80;99.90;;;;;;5048135;28;20033;-50
2022/07/09 04:54:24;;;;;;;7.05;3.80;;;14.80;99.90;;;;;;5048894;28;20029;-47
2022/07/09 04:56:49;;;;;;;5.30;4.07;;;14.80;99.90;;;;;;5051870;28;20029;-50
2022/07/09 04:59:15;;;;;;;5.95;4.13;;;14.90;99.90;;;;;;5052789;28;20483;-50
2022/07/09 05:01:41;;;;;;;8.18;4.72;;;14.90;99.90;;;;;;5052815;28;20029;-46
2022/07/09 05:04:06;;;;;;;7.20;4.72;;;14.90;99.90;;;;;;5052679;28;20036;-47
2022/07/09 05:06:32;;;;;;;10.13;4.35;;;14.90;99.90;;;;;;5052504;28;20029;-49
2022/07/09 05:08:58;;;;;;;8.43;4.18;;;14.90;99.90;;;;;;5052496;28;20086;-46
2022/07/09 05:11:24;;;;;;;9.55;4.20;;;15.00;99.90;;;;;;5051590;28;20060;-50
2022/07/09 05:13:49;;;;;;;8.40;5.00;;;15.00;99.90;;;;;;5052103;28;20036;-50
2022/07/09 05:16:15;;;;;;;6.28;4.28;;;15.00;99.90;;;;;;5052690;28;20472;-47
2022/07/09 05:18:40;;;;;;;7.35;4.20;;;15.00;99.90;;;;;;5052839;28;20262;-46
2022/07/09 05:21:06;;;;;;;7.35;3.85;;;15.00;99.90;;;;;;5052511;28;20078;-50
2022/07/09 05:23:31;;;;;;;8.82;5.05;;;15.10;99.90;;;;;;5052196;28;20391;-51
2022/07/09 05:25:57;;;;;;;6.65;4.10;;;15.10;99.90;;;;;;5050705;28;20391;-47
2022/07/09 05:28:23;;;;;;;5.03;3.22;;;15.10;99.90;;;;;;5052598;28;20094;-47
2022/07/09 05:30:48;;;;;;;9.57;3.97;;;15.10;99.90;;;;;;5052905;28;20036;-48
2022/07/09 05:33:14;;;;;;;10.50;5.05;;;15.10;99.90;;;;;;5047519;28;20031;-56
2022/07/09 05:35:40;;;;;;;5.68;3.67;;;15.10;99.90;;;;;;5052173;28;20245;-52
2022/07/09 05:38:06;;;;;;;5.95;3.97;;;15.20;99.90;;;;;;5052397;28;20048;-49
2022/07/09 05:40:31;;;;;;;6.53;3.72;;;15.20;99.90;;;;;;5052294;28;20057;-51
2022/07/09 05:42:57;;;;;;;5.80;4.15;;;15.20;99.90;;;;;;5051868;28;20018;-52
2022/07/09 05:45:23;;;;;;;6.82;3.88;;;15.20;99.90;;;;;;5033880;28;20071;-53
2022/07/09 05:47:48;;;;;;;7.97;4.13;;;15.20;99.90;;;;;;5052324;28;20025;-50
2022/07/09 05:50:15;;;;;;;6.75;3.90;;;15.30;99.90;;;;;;5052224;28;20032;-53
2022/07/09 05:52:40;;;;;;;7.50;3.55;;;15.30;99.90;;;;;;5051932;28;20028;-48
2022/07/09 05:55:06;;;;;;;7.70;3.58;;;15.30;99.90;;;;;;5051645;28;20755;-53
2022/07/09 05:57:32;;;;;;;7.45;3.97;;;15.40;99.90;;;;;;5051983;28;20037;-47
2022/07/09 05:59:58;;;;;;;4.32;3.28;;;15.40;99.90;;;;;;5051832;28;20060;-47
2022/07/09 06:02:23;;;;;;;6.22;3.05;;;15.40;99.90;;;;;;5051692;28;20093;-49
2022/07/09 06:04:49;;;;;;;6.15;3.17;;;15.40;99.90;;;;;;5051651;28;20025;-55
2022/07/09 06:09:42;;;;;;;9.75;6.05;;;15.50;99.90;;;;;;5030379;28;20416;-49
2022/07/09 06:12:08;;;;;;;7.35;3.67;;;15.50;99.90;;;;;;5030661;28;20079;-49
2022/07/09 06:14:34;;;;;;;7.20;3.47;;;15.50;99.90;;;;;;5031498;28;20549;-50
2022/07/09 06:17:05;;;;;;;6.13;4.15;;;15.50;99.90;;;;;;5031413;28;20515;-49
2022/07/09 06:19:32;;;;;;;6.05;3.65;;;15.50;99.90;;;;;;5031689;28;20071;-48
2022/07/09 06:21:58;;;;;;;6.30;3.90;;;15.60;99.90;;;;;;5012994;28;20025;-53
2022/07/09 06:24:24;;;;;;;4.47;3.70;;;15.60;99.90;;;;;;5031512;28;20017;-49
2022/07/09 06:26:50;;;;;;;6.40;3.70;;;15.70;99.90;;;;;;5031453;28;20056;-48
2022/07/09 06:29:15;;;;;;;8.10;4.20;;;15.80;99.90;;;;;;5031344;28;20409;-50
2022/07/09 06:31:41;;;;;;;8.32;4.10;;;15.80;99.90;;;;;;5031044;28;20022;-50
2022/07/09 06:34:07;;;;;;;6.28;3.85;;;15.80;99.90;;;;;;5012472;28;20500;-47
2022/07/09 06:36:33;;;;;;;7.05;3.92;;;15.80;99.90;;;;;;5030711;28;20032;-53
2022/07/09 06:41:42;;;;;;;5.53;3.60;;;15.90;99.90;;;;;;5030805;28;20029;-49
2022/07/09 06:44:08;;;;;;;9.98;4.07;;;15.90;99.90;;;;;;5031324;28;20045;-48
2022/07/09 06:46:35;;;;;;;8.43;3.80;;;16.00;99.90;;;;;;5031208;28;20021;-47
2022/07/09 06:49:01;;;;;;;7.15;4.18;;;16.00;99.90;;;;;;5030581;28;20097;-50
2022/07/09 06:51:27;;;;;;;7.43;3.80;;;16.10;99.90;;;;;;5030771;28;20029;-49
2022/07/09 06:53:52;;;;;;;4.53;4.07;;;16.20;99.90;;;;;;5026267;28;20100;-48
2022/07/09 06:56:18;;;;;;;3.97;3.67;;;16.20;99.90;;;;;;5030803;28;20060;-49
2022/07/09 06:58:43;;;;;;;6.13;4.03;;;16.20;99.90;;;;;;5012390;28;20030;-47
2022/07/09 07:01:09;;;;;;;4.40;2.78;;;16.30;99.90;;;;;;5010623;28;20530;-49
2022/07/09 07:03:34;;;;;;;6.28;3.97;;;16.30;99.90;;;;;;5029513;28;20040;-46
2022/07/09 07:06:00;;;;;;;7.05;4.07;;;16.30;99.90;;;;;;5030454;28;20075;-50
2022/07/09 07:08:25;;;;;;;6.75;3.10;;;16.40;99.90;;;;;;5030399;28;20164;-47
2022/07/09 07:10:51;;;;;;;3.92;3.42;;;16.40;99.90;;;;;;5012904;28;20026;-53
2022/07/09 07:13:16;;;;;;;7.32;3.30;;;16.50;99.90;;;;;;5030195;28;20680;-51
2022/07/09 07:15:44;;;;;;;4.15;2.83;;;16.50;99.90;;;;;;5030375;28;20040;-47
2022/07/09 07:18:10;;;;;;;4.25;2.45;;;16.60;99.90;;;;;;5037445;28;20018;-49
2022/07/09 07:20:35;;;;;;;3.78;3.25;;;16.70;99.90;;;;;;5030683;28;20377;-49
2022/07/09 07:23:01;;;;;;;6.40;3.22;;;16.80;99.90;;;;;;5029904;28;20026;-47
2022/07/09 07:25:27;;;;;;;7.25;3.50;;;16.90;99.90;;;;;;5030329;28;20017;-51
2022/07/09 07:27:52;;;;;;;5.05;2.78;;;17.10;99.90;;;;;;5012231;28;20037;-49
2022/07/09 07:30:18;;;;;;;6.45;2.65;;;17.20;99.90;;;;;;5030115;28;20021;-48
2022/07/09 07:32:43;;;;;;;4.18;2.35;;;17.30;99.90;;;;;;5029079;28;20083;-50
2022/07/09 07:35:09;;;;;;;4.68;2.53;;;17.40;99.90;;;;;;5029945;28;20030;-47
2022/07/09 07:37:35;;;;;;;4.82;2.75;;;17.50;99.90;;;;;;5026099;28;20029;-49
2022/07/09 07:40:00;;;;;;;7.72;3.13;;;17.60;99.90;;;;;;5026727;28;20562;-49
2022/07/09 07:42:26;;;;;;;4.38;2.25;;;17.80;99.90;;;;;;5029176;28;20448;-48
2022/07/09 07:44:51;;;;;;;4.40;2.40;;;18.00;99.90;;;;;;5026078;28;20037;-50
2022/07/09 07:47:17;;;;;;;5.72;2.15;;;18.10;99.90;;;;;;5029436;28;20048;-47
2022/07/09 07:49:42;;;;;;;2.90;1.90;;;18.30;99.90;;;;;;5029473;28;20550;-51
2022/07/09 07:52:08;;;;;;;4.30;2.17;;;18.50;99.90;;;;;;5026828;28;20037;-47
2022/07/09 07:54:33;;;;;;;3.22;1.95;;;18.80;99.90;;;;;;5011894;28;20042;-47
2022/07/09 07:56:59;;;;;;;4.05;1.80;;;19.20;99.90;;;;;;5029060;28;20064;-48
2022/07/09 07:59:25;;;;;;;2.08;1.70;;;19.40;99.90;;;;;;5029813;28;20061;-50
2022/07/09 08:01:50;;;;;;;3.90;1.50;;;19.40;99.90;;;;;;5029098;28;20108;-47
2022/07/09 08:04:16;;;;;;;3.35;1.55;;;19.20;99.90;;;;;;5029287;28;20032;-50
2022/07/09 08:06:41;;;;;;;4.38;1.80;;;19.10;99.90;;;;;;5029184;28;20021;-50
2022/07/09 08:09:07;;;;;;;2.55;1.85;;;18.90;99.90;;;;;;5028901;28;20052;-49
2022/07/09 08:11:33;;;;;;;3.22;1.90;;;18.70;99.90;;;;;;5027715;28;20031;-51
2022/07/09 08:13:59;;;;;;;3.65;2.15;;;18.60;99.90;;;;;;5028923;28;20036;-49
2022/07/09 08:16:24;;;;;;;5.22;2.03;;;18.50;99.90;;;;;;5029130;28;20014;-48
2022/07/09 08:18:50;;;;;;;3.50;2.03;;;18.70;99.90;;;;;;5029165;28;20425;-48
2022/07/09 08:21:15;;;;;;;2.83;1.60;;;18.80;99.90;;;;;;5010331;28;20017;-49
2022/07/09 08:23:54;;;;;;;5.40;1.52;;;19.00;99.90;;;;;;5010762;28;20021;-47
2022/07/09 08:26:29;;;;;;;5.10;1.95;;;19.10;99.90;;;;;;5027182;28;20013;-53
2022/07/09 08:28:55;;;;;;;3.20;2.00;;;19.50;99.90;;;;;;5028504;28;20025;-47
2022/07/09 08:31:21;;;;;;;2.25;1.85;;;19.80;99.90;;;;;;5028455;28;20028;-47
2022/07/09 08:33:47;;;;;;;5.40;1.52;;;20.10;99.90;;;;;;5028562;28;20435;-49
2022/07/09 08:36:13;;;;;;;3.85;1.63;;;20.30;99.90;;;;;;5028468;28;20026;-47
2022/07/09 08:38:39;;;;;;;2.67;1.25;;;20.50;99.90;;;;;;5010794;28;20045;-52
2022/07/09 08:41:06;;;;;;;2.10;1.30;;;20.70;99.90;;;;;;5029129;28;20471;-49
2022/07/09 08:43:33;;;;;;;1.73;1.02;;;20.80;99.90;;;;;;5027657;28;20029;-47
2022/07/09 08:45:59;;;;;;;4.43;1.40;;;20.80;99.90;;;;;;5028683;28;20026;-47
2022/07/09 08:48:25;;;;;;;4.25;1.40;;;20.80;99.90;;;;;;5027276;28;20502;-50
2022/07/09 08:50:51;;;;;;;1.40;1.30;;;20.70;99.90;;;;;;5028263;28;20052;-52
2022/07/09 08:53:18;;;;;;;2.60;1.10;;;20.50;99.90;;;;;;5010837;28;20018;-50
2022/07/09 08:55:47;;;;;;;1.45;1.10;;;20.40;99.90;;;;;;5028282;28;20029;-49
2022/07/09 08:58:14;;;;;;;1.35;1.20;;;20.30;99.90;;;;;;5028676;28;20029;-46
2022/07/09 09:00:41;;;;;;;4.10;1.30;;;20.40;99.90;;;;;;5010680;28;20684;-46
2022/07/09 09:03:07;;;;;;;2.08;1.10;;;20.60;99.90;;;;;;5028594;28;20093;-48
2022/07/09 09:05:33;;;;;;;2.63;1.48;;;20.70;99.90;;;;;;5010504;28;20025;-52
2022/07/09 09:07:59;;;;;;;1.08;0.95;;;20.60;99.90;;;;;;5028501;28;20033;-53
2022/07/09 09:10:27;;;;;;;1.30;1.00;;;20.40;99.90;;;;;;5028654;28;20025;-52
2022/07/09 09:12:57;;;;;;;5.10;1.23;;;20.30;99.90;;;;;;5028333;28;20041;-54
2022/07/09 09:15:23;;;;;;;1.67;1.35;;;20.10;99.90;;;;;;5010470;28;20072;-54
2022/07/09 09:17:49;;;;;;;2.40;1.20;;;19.90;99.90;;;;;;5028322;28;20496;-55
2022/07/09 09:20:15;;;;;;;3.35;1.27;;;20.10;99.90;;;;;;5027863;28;20036;-52
2022/07/09 09:22:51;;;;;;;3.08;1.52;;;20.40;99.90;;;;;;5009725;28;20080;-54
2022/07/09 09:25:20;;;;;;;1.85;1.10;;;20.70;99.90;;;;;;5028709;28;20024;-53
2022/07/09 09:27:59;;;;;;;2.55;1.40;;;20.60;99.90;;;;;;5009644;28;20034;-48
2022/07/09 09:30:29;;;;;;;3.53;1.10;;;20.50;99.90;;;;;;5021862;28;20377;-52
2022/07/09 09:33:01;;;;;;;1.00;0.90;;;20.40;99.90;;;;;;5027738;28;20061;-47
2022/07/09 09:35:29;;;;;;;3.00;1.05;;;20.30;99.90;;;;;;5028015;28;20484;-51
2022/07/09 09:37:55;;;;;;;2.35;1.27;;;20.20;99.90;;;;;;5027988;28;20045;-49
2022/07/09 09:40:21;;;;;;;1.83;1.35;;;20.10;99.90;;;;;;5028245;28;20026;-51
2022/07/09 09:42:49;;;;;;;2.95;1.40;;;20.20;99.90;;;;;;5029815;28;20030;-49
2022/07/09 09:45:17;;;;;;;3.67;1.52;;;20.20;99.90;;;;;;5028264;28;20021;-48
2022/07/09 09:47:47;;;;;;;2.38;1.45;;;20.40;99.90;;;;;;5031473;28;20028;-46
2022/07/09 09:50:32;;;;;;;4.15;2.75;;;20.50;99.90;;;;;;5014161;28;20025;-52
2022/07/09 09:52:58;;;;;;;2.15;1.48;;;20.80;99.90;;;;;;5031512;28;20099;-50
2022/07/09 09:55:24;;;;;;;1.42;1.30;;;21.10;99.90;;;;;;5031564;28;20079;-52
2022/07/09 09:57:51;;;;;;;3.83;1.50;;;21.40;99.90;;;;;;5031608;28;20041;-51
2022/07/09 10:00:18;;;;;;;4.70;2.58;;;21.50;99.90;;;;;;5030828;28;20048;-50
2022/07/09 10:02:46;;;;;;;4.80;1.73;;;21.30;99.90;;;;;;5030614;28;20052;-54
2022/07/09 10:05:13;;;;;;;2.63;1.38;;;21.20;99.90;;;;;;5031529;28;20049;-47
2022/07/09 10:07:42;;;;;;;3.78;2.40;;;21.10;99.90;;;;;;5029919;28;20026;-48
2022/07/09 10:10:16;;;;;;;2.33;1.35;;;21.20;99.90;;;;;;5031643;28;20094;-55
2022/07/09 10:12:41;;;;;;;2.15;1.67;;;21.30;99.90;;;;;;5031341;28;20029;-53
2022/07/09 10:15:26;;;;;;;3.22;1.40;;;21.40;99.90;;;;;;5013737;28;20376;-48
2022/07/09 10:17:52;;;;;;;1.58;1.48;;;21.60;99.90;;;;;;5031198;28;20017;-48
2022/07/09 10:20:33;;;;;;;2.72;1.13;;;21.80;99.90;;;;;;5031565;28;20439;-49
2022/07/09 10:23:00;;;;;;;4.55;1.20;;;22.00;99.90;;;;;;5030741;28;20018;-51
2022/07/09 10:25:31;;;;;;;1.70;1.00;;;21.90;99.90;;;;;;5031428;28;20041;-51
2022/07/09 10:27:57;;;;;;;2.35;1.38;;;21.80;99.90;;;;;;5013556;28;20175;-49
2022/07/09 10:30:27;;;;;;;2.75;1.33;;;21.70;99.90;;;;;;5031286;28;20017;-50
2022/07/09 10:33:08;;;;;;;2.20;0.98;;;21.30;99.90;;;;;;5030774;28;20387;-51
2022/07/09 10:35:44;;;;;;;3.67;1.00;;;21.20;99.90;;;;;;5025737;28;20207;-50
2022/07/09 10:38:11;;;;;;;1.40;0.98;;;21.20;99.90;;;;;;5013196;28;20049;-51
2022/07/09 10:40:48;;;;;;;3.53;0.98;;;21.30;99.90;;;;;;5013231;28;20038;-52
2022/07/09 10:43:14;;;;;;;3.03;0.80;;;21.40;99.90;;;;;;5030706;28;20373;-53
2022/07/09 10:45:41;;;;;;;2.55;1.17;;;21.20;99.90;;;;;;5030888;28;20155;-53
2022/07/09 10:48:09;;;;;;;2.13;0.90;;;21.10;99.90;;;;;;5030732;28;20021;-51
2022/07/09 10:50:43;;;;;;;3.10;1.15;;;21.10;99.90;;;;;;5030780;28;20447;-47
2022/07/09 10:53:11;;;;;;;1.25;0.70;;;21.30;99.90;;;;;;5030179;28;20572;-49
2022/07/09 10:55:37;;;;;;;3.05;0.85;;;21.50;99.90;;;;;;5030562;28;20099;-50
2022/07/09 10:58:07;;;;;;;1.90;0.75;;;21.60;99.90;;;;;;5030824;28;20065;-50
2022/07/09 11:00:34;;;;;;;3.60;1.27;;;21.60;99.90;;;;;;5030827;28;20025;-49
2022/07/09 11:03:05;;;;;;;1.20;0.95;;;21.60;99.90;;;;;;5030569;28;20014;-48
2022/07/09 11:05:43;;;;;;;2.22;0.82;;;21.40;99.90;;;;;;5030773;28;20022;-51
2022/07/09 11:08:10;;;;;;;2.88;1.15;;;21.10;99.90;;;;;;5030133;28;20057;-50
2022/07/09 11:10:38;;;;;;;0.98;0.77;;;21.10;99.90;;;;;;5030618;28;20068;-51
2022/07/09 11:13:06;;;;;;;1.63;0.80;;;21.20;99.90;;;;;;5012018;28;20040;-49
2022/07/09 11:15:33;;;;;;;0.60;0.60;;;21.30;99.90;;;;;;5030235;28;20433;-48
2022/07/09 11:18:02;;;;;;;2.00;0.90;;;21.40;99.90;;;;;;5029721;28;20163;-54
2022/07/09 11:20:29;;;;;;;2.97;0.80;;;21.40;99.90;;;;;;5032496;28;20021;-51
2022/07/09 11:23:00;;;;;;;1.52;0.90;;;21.20;99.90;;;;;;5029052;28;20026;-51
2022/07/09 11:25:27;;;;;;;3.47;0.80;;;21.10;99.90;;;;;;5028721;28;20026;-51
2022/07/09 11:28:00;;;;;;;1.70;0.73;;;21.10;99.90;;;;;;5029892;28;20021;-50
2022/07/09 11:30:27;;;;;;;2.50;0.88;;;21.20;99.90;;;;;;5027495;28;20026;-50
2022/07/09 11:32:53;;;;;;;2.40;0.80;;;21.40;99.90;;;;;;5028727;28;20190;-48
2022/07/09 11:35:25;;;;;;;3.47;0.90;;;21.70;99.90;;;;;;5029461;28;20034;-48
2022/07/09 11:37:52;;;;;;;2.00;1.17;;;21.90;99.90;;;;;;5029529;28;20025;-53
2022/07/09 11:40:18;;;;;;;1.92;0.70;;;21.80;99.90;;;;;;5012055;28;20037;-51
2022/07/09 11:42:44;;;;;;;1.98;0.70;;;21.80;99.90;;;;;;5028357;28;20029;-48
2022/07/09 11:45:11;;;;;;;0.82;0.70;;;21.70;99.90;;;;;;5030110;28;20502;-51
2022/07/09 11:47:40;;;;;;;1.05;0.75;;;21.70;99.90;;;;;;5029017;28;20025;-51
2022/07/09 11:50:14;;;;;;;2.00;1.15;;;21.60;99.90;;;;;;5029944;28;20026;-51
2022/07/09 11:52:47;;;;;;;1.17;0.80;;;21.60;99.90;;;;;;5011644;28;20026;-52
2022/07/09 11:55:21;;;;;;;1.55;1.00;;;21.80;99.90;;;;;;5029921;28;20018;-51
2022/07/09 11:58:06;;;;;;;1.95;0.90;;;21.70;99.90;;;;;;5029579;28;20038;-50
2022/07/09 12:00:39;;;;;;;2.80;0.97;;;21.50;99.90;;;;;;5025603;28;20033;-51
2022/07/09 12:03:05;;;;;;;3.00;0.75;;;21.50;99.90;;;;;;5028606;28;20088;-52
2022/07/09 12:05:39;;;;;;;0.63;0.60;;;21.60;99.90;;;;;;5028853;28;20013;-50
2022/07/09 12:08:07;;;;;;;3.80;1.27;;;21.80;99.90;;;;;;5056762;22;20700;-54
2022/07/09 12:10:36;;;;;;;1.95;0.82;;;21.60;99.90;;;;;;5049353;28;20040;-53
2022/07/09 12:13:02;;;;;;;2.20;0.93;;;21.40;99.90;;;;;;5052664;28;20037;-52
2022/07/09 12:15:29;;;;;;;1.15;0.90;;;21.20;99.90;;;;;;5056994;28;20079;-53
2022/07/09 12:17:56;;;;;;;0.75;0.73;;;21.30;99.90;;;;;;5040664;28;20058;-48
2022/07/09 12:20:23;;;;;;;1.73;1.23;;;21.30;99.90;;;;;;5076088;28;20021;-48
2022/07/09 12:22:50;;;;;;;3.50;1.27;;;21.40;99.90;;;;;;5070258;28;20052;-53
2022/07/09 12:25:16;;;;;;;3.10;0.95;;;21.40;99.90;;;;;;5055021;28;20459;-48
2022/07/09 12:27:41;;;;;;;1.40;1.00;;;21.40;99.90;;;;;;5069265;28;20104;-47
2022/07/09 12:30:07;;;;;;;4.70;1.25;;;21.40;99.90;;;;;;5077287;28;20028;-50
2022/07/09 12:32:34;;;;;;;2.58;1.00;;;21.50;99.90;;;;;;5072268;28;20043;-51
2022/07/09 12:35:00;;;;;;;1.33;0.75;;;21.60;99.90;;;;;;5074356;28;20029;-49
2022/07/09 12:37:26;;;;;;;1.23;0.80;;;21.60;99.90;;;;;;5052945;28;20162;-49
2022/07/09 12:39:53;;;;;;;2.85;1.15;;;21.70;99.90;;;;;;5074134;28;20024;-49
2022/07/09 12:42:22;;;;;;;2.85;1.27;;;21.70;99.90;;;;;;5055669;28;20024;-56
2022/07/09 12:44:48;;;;;;;1.25;0.90;;;21.50;99.90;;;;;;5073599;28;20550;-50
2022/07/09 12:47:14;;;;;;;2.20;1.15;;;21.40;99.90;;;;;;5069598;28;20052;-53
2022/07/09 12:49:39;;;;;;;2.97;1.00;;;21.50;99.90;;;;;;5072474;28;20020;-53